sensor_id;sensor_type;location;lat;lon;timestamp;P1;durP1;ratioP1;P2;durP2;ratioP2
67558;SDS011;54388;53.536;49.300;2023-04-10T00:00:10;14.00;;;5.68;;
67558;SDS011;54388;53.536;49.300;2023-04-10T00:02:42;17.00;;;6.07;;
67558;SDS011;54388;53.536;49.300;2023-04-10T00:05:14;19.42;;;6.18;;
67558;SDS011;54388;53.536;49.300;2023-04-10T00:07:46;17.95;;;6.00;;
67558;SDS011;54388;53.536;49.300;2023-04-10T00:10:18;20.88;;;5.72;;
67558;SDS011;54388;53.536;49.300;2023-04-10T00:12:49;29.50;;;6.00;;
67558;SDS011;54388;53.536;49.300;2023-04-10T00:15:23;20.35;;;6.20;;
67558;SDS011;54388;53.536;49.300;2023-04-10T00:17:55;25.17;;;6.65;;
67558;SDS011;54388;53.536;49.300;2023-04-10T00:20:26;26.70;;;6.82;;
67558;SDS011;54388;53.536;49.300;2023-04-10T00:22:58;25.23;;;6.43;;
67558;SDS011;54388;53.536;49.300;2023-04-10T00:25:30;25.48;;;6.10;;
67558;SDS011;54388;53.536;49.300;2023-04-10T00:28:02;25.00;;;6.57;;
67558;SDS011;54388;53.536;49.300;2023-04-10T00:30:33;16.40;;;5.85;;
67558;SDS011;54388;53.536;49.300;2023-04-10T00:33:05;20.00;;;6.00;;
67558;SDS011;54388;53.536;49.300;2023-04-10T00:35:37;38.05;;;6.05;;
67558;SDS011;54388;53.536;49.300;2023-04-10T00:38:08;15.95;;;5.28;;
67558;SDS011;54388;53.536;49.300;2023-04-10T00:40:40;13.60;;;5.65;;
67558;SDS011;54388;53.536;49.300;2023-04-10T00:43:12;12.10;;;4.93;;
67558;SDS011;54388;53.536;49.300;2023-04-10T00:45:43;16.95;;;5.35;;
67558;SDS011;54388;53.536;49.300;2023-04-10T00:48:16;18.58;;;6.25;;
67558;SDS011;54388;53.536;49.300;2023-04-10T00:50:48;12.85;;;6.10;;
67558;SDS011;54388;53.536;49.300;2023-04-10T00:53:20;16.58;;;6.15;;
67558;SDS011;54388;53.536;49.300;2023-04-10T00:55:51;16.27;;;5.80;;
67558;SDS011;54388;53.536;49.300;2023-04-10T00:58:24;18.90;;;6.35;;
67558;SDS011;54388;53.536;49.300;2023-04-10T01:00:56;20.50;;;6.43;;
67558;SDS011;54388;53.536;49.300;2023-04-10T01:03:28;16.33;;;6.03;;
67558;SDS011;54388;53.536;49.300;2023-04-10T01:09:04;27.45;;;6.78;;
67558;SDS011;54388;53.536;49.300;2023-04-10T01:20:25;25.92;;;6.68;;
67558;SDS011;54388;53.536;49.300;2023-04-10T01:31:44;17.02;;;5.82;;
67558;SDS011;54388;53.536;49.300;2023-04-10T01:34:50;26.45;;;6.60;;
67558;SDS011;54388;53.536;49.300;2023-04-10T01:37:26;28.40;;;6.95;;
67558;SDS011;54388;53.536;49.300;2023-04-10T01:40:02;22.98;;;6.18;;
67558;SDS011;54388;53.536;49.300;2023-04-10T01:42:40;31.52;;;7.07;;
67558;SDS011;54388;53.536;49.300;2023-04-10T01:45:22;23.27;;;6.57;;
67558;SDS011;54388;53.536;49.300;2023-04-10T01:47:57;28.17;;;7.20;;
67558;SDS011;54388;53.536;49.300;2023-04-10T01:50:30;23.13;;;7.72;;
67558;SDS011;54388;53.536;49.300;2023-04-10T01:53:03;27.05;;;7.20;;
67558;SDS011;54388;53.536;49.300;2023-04-10T01:55:37;39.17;;;8.65;;
67558;SDS011;54388;53.536;49.300;2023-04-10T01:58:10;22.13;;;6.95;;
67558;SDS011;54388;53.536;49.300;2023-04-10T02:00:42;28.48;;;7.47;;
67558;SDS011;54388;53.536;49.300;2023-04-10T02:03:14;35.85;;;8.30;;
67558;SDS011;54388;53.536;49.300;2023-04-10T02:11:46;53.38;;;10.60;;
67558;SDS011;54388;53.536;49.300;2023-04-10T02:14:33;59.45;;;9.35;;
67558;SDS011;54388;53.536;49.300;2023-04-10T02:17:09;49.88;;;9.80;;
67558;SDS011;54388;53.536;49.300;2023-04-10T02:19:44;53.22;;;11.38;;
67558;SDS011;54388;53.536;49.300;2023-04-10T02:22:18;69.75;;;12.48;;
67558;SDS011;54388;53.536;49.300;2023-04-10T02:24:50;70.50;;;10.93;;
67558;SDS011;54388;53.536;49.300;2023-04-10T02:27:29;62.60;;;10.88;;
67558;SDS011;54388;53.536;49.300;2023-04-10T02:30:03;49.97;;;10.80;;
67558;SDS011;54388;53.536;49.300;2023-04-10T02:32:35;56.30;;;10.45;;
67558;SDS011;54388;53.536;49.300;2023-04-10T02:35:07;41.88;;;9.00;;
67558;SDS011;54388;53.536;49.300;2023-04-10T02:37:39;30.77;;;8.25;;
67558;SDS011;54388;53.536;49.300;2023-04-10T02:40:12;45.88;;;8.98;;
67558;SDS011;54388;53.536;49.300;2023-04-10T02:42:44;44.88;;;9.88;;
67558;SDS011;54388;53.536;49.300;2023-04-10T02:45:16;65.78;;;10.07;;
67558;SDS011;54388;53.536;49.300;2023-04-10T02:47:47;51.88;;;9.98;;
67558;SDS011;54388;53.536;49.300;2023-04-10T02:50:19;33.13;;;8.30;;
67558;SDS011;54388;53.536;49.300;2023-04-10T02:52:51;33.05;;;8.07;;
67558;SDS011;54388;53.536;49.300;2023-04-10T02:55:24;33.33;;;7.97;;
67558;SDS011;54388;53.536;49.300;2023-04-10T02:57:56;47.78;;;9.40;;
67558;SDS011;54388;53.536;49.300;2023-04-10T03:00:28;30.42;;;8.90;;
67558;SDS011;54388;53.536;49.300;2023-04-10T03:03:00;47.88;;;8.63;;
67558;SDS011;54388;53.536;49.300;2023-04-10T03:05:33;63.08;;;9.95;;
67558;SDS011;54388;53.536;49.300;2023-04-10T03:08:04;72.30;;;10.32;;
67558;SDS011;54388;53.536;49.300;2023-04-10T03:10:36;44.45;;;8.68;;
67558;SDS011;54388;53.536;49.300;2023-04-10T03:13:08;37.45;;;9.00;;
67558;SDS011;54388;53.536;49.300;2023-04-10T03:15:40;42.75;;;9.55;;
67558;SDS011;54388;53.536;49.300;2023-04-10T03:18:12;37.35;;;8.82;;
67558;SDS011;54388;53.536;49.300;2023-04-10T03:20:44;49.55;;;9.60;;
67558;SDS011;54388;53.536;49.300;2023-04-10T03:23:15;41.50;;;9.20;;
67558;SDS011;54388;53.536;49.300;2023-04-10T03:25:50;33.63;;;7.85;;
67558;SDS011;54388;53.536;49.300;2023-04-10T03:28:25;40.70;;;8.02;;
67558;SDS011;54388;53.536;49.300;2023-04-10T03:30:57;33.67;;;8.30;;
67558;SDS011;54388;53.536;49.300;2023-04-10T03:33:29;44.38;;;8.85;;
67558;SDS011;54388;53.536;49.300;2023-04-10T03:36:00;37.53;;;9.77;;
67558;SDS011;54388;53.536;49.300;2023-04-10T03:38:32;25.15;;;8.20;;
67558;SDS011;54388;53.536;49.300;2023-04-10T03:41:04;28.15;;;7.90;;
67558;SDS011;54388;53.536;49.300;2023-04-10T03:43:36;30.52;;;8.73;;
67558;SDS011;54388;53.536;49.300;2023-04-10T03:46:08;39.88;;;13.05;;
67558;SDS011;54388;53.536;49.300;2023-04-10T03:48:40;36.55;;;12.63;;
67558;SDS011;54388;53.536;49.300;2023-04-10T03:51:12;41.10;;;12.55;;
67558;SDS011;54388;53.536;49.300;2023-04-10T03:53:44;33.35;;;12.32;;
67558;SDS011;54388;53.536;49.300;2023-04-10T03:56:16;26.92;;;11.65;;
67558;SDS011;54388;53.536;49.300;2023-04-10T03:58:48;32.08;;;12.20;;
67558;SDS011;54388;53.536;49.300;2023-04-10T04:01:20;29.65;;;10.18;;
67558;SDS011;54388;53.536;49.300;2023-04-10T04:03:52;39.75;;;10.90;;
67558;SDS011;54388;53.536;49.300;2023-04-10T04:06:24;27.05;;;8.88;;
67558;SDS011;54388;53.536;49.300;2023-04-10T04:08:57;33.05;;;9.48;;
67558;SDS011;54388;53.536;49.300;2023-04-10T04:11:28;26.02;;;9.70;;
67558;SDS011;54388;53.536;49.300;2023-04-10T04:14:01;28.30;;;10.20;;
67558;SDS011;54388;53.536;49.300;2023-04-10T04:16:32;30.08;;;9.60;;
67558;SDS011;54388;53.536;49.300;2023-04-10T04:19:04;42.78;;;9.25;;
67558;SDS011;54388;53.536;49.300;2023-04-10T04:21:36;23.65;;;8.30;;
67558;SDS011;54388;53.536;49.300;2023-04-10T04:24:08;44.45;;;9.73;;
67558;SDS011;54388;53.536;49.300;2023-04-10T04:26:39;27.88;;;8.50;;
67558;SDS011;54388;53.536;49.300;2023-04-10T04:29:11;41.58;;;8.45;;
67558;SDS011;54388;53.536;49.300;2023-04-10T04:31:43;32.80;;;8.57;;
67558;SDS011;54388;53.536;49.300;2023-04-10T04:34:14;32.78;;;8.45;;
67558;SDS011;54388;53.536;49.300;2023-04-10T04:36:46;28.30;;;8.45;;
67558;SDS011;54388;53.536;49.300;2023-04-10T04:39:18;30.75;;;9.77;;
67558;SDS011;54388;53.536;49.300;2023-04-10T04:41:51;31.40;;;9.40;;
67558;SDS011;54388;53.536;49.300;2023-04-10T04:44:23;32.10;;;9.35;;
67558;SDS011;54388;53.536;49.300;2023-04-10T04:46:55;25.65;;;8.70;;
67558;SDS011;54388;53.536;49.300;2023-04-10T04:49:27;27.08;;;8.90;;
67558;SDS011;54388;53.536;49.300;2023-04-10T04:51:58;30.77;;;8.75;;
67558;SDS011;54388;53.536;49.300;2023-04-10T04:54:30;21.77;;;8.25;;
67558;SDS011;54388;53.536;49.300;2023-04-10T04:57:02;20.55;;;7.88;;
67558;SDS011;54388;53.536;49.300;2023-04-10T04:59:34;27.38;;;8.38;;
67558;SDS011;54388;53.536;49.300;2023-04-10T05:02:05;28.35;;;9.40;;
67558;SDS011;54388;53.536;49.300;2023-04-10T05:04:37;17.27;;;7.90;;
67558;SDS011;54388;53.536;49.300;2023-04-10T05:07:09;19.35;;;8.10;;
67558;SDS011;54388;53.536;49.300;2023-04-10T05:09:41;16.55;;;7.72;;
67558;SDS011;54388;53.536;49.300;2023-04-10T05:12:13;21.25;;;7.65;;
67558;SDS011;54388;53.536;49.300;2023-04-10T05:14:44;18.50;;;8.32;;
67558;SDS011;54388;53.536;49.300;2023-04-10T05:17:16;22.65;;;7.43;;
67558;SDS011;54388;53.536;49.300;2023-04-10T05:19:48;18.70;;;6.93;;
67558;SDS011;54388;53.536;49.300;2023-04-10T05:22:20;20.58;;;7.93;;
67558;SDS011;54388;53.536;49.300;2023-04-10T05:24:51;15.30;;;7.72;;
67558;SDS011;54388;53.536;49.300;2023-04-10T05:27:25;18.23;;;7.78;;
67558;SDS011;54388;53.536;49.300;2023-04-10T05:29:57;25.30;;;9.00;;
67558;SDS011;54388;53.536;49.300;2023-04-10T05:32:28;17.88;;;8.80;;
67558;SDS011;54388;53.536;49.300;2023-04-10T05:35:00;19.42;;;8.32;;
67558;SDS011;54388;53.536;49.300;2023-04-10T05:37:32;18.50;;;7.50;;
67558;SDS011;54388;53.536;49.300;2023-04-10T05:40:04;21.63;;;8.73;;
67558;SDS011;54388;53.536;49.300;2023-04-10T05:42:36;21.70;;;8.57;;
67558;SDS011;54388;53.536;49.300;2023-04-10T05:45:08;19.42;;;8.88;;
67558;SDS011;54388;53.536;49.300;2023-04-10T05:47:40;22.27;;;8.43;;
67558;SDS011;54388;53.536;49.300;2023-04-10T05:50:12;21.65;;;9.10;;
67558;SDS011;54388;53.536;49.300;2023-04-10T05:52:44;20.38;;;8.55;;
67558;SDS011;54388;53.536;49.300;2023-04-10T05:55:16;27.50;;;10.35;;
67558;SDS011;54388;53.536;49.300;2023-04-10T05:57:48;17.67;;;8.10;;
67558;SDS011;54388;53.536;49.300;2023-04-10T06:00:21;15.07;;;7.28;;
67558;SDS011;54388;53.536;49.300;2023-04-10T06:02:53;18.90;;;7.75;;
67558;SDS011;54388;53.536;49.300;2023-04-10T06:05:26;15.98;;;7.32;;
67558;SDS011;54388;53.536;49.300;2023-04-10T06:07:58;15.85;;;7.25;;
67558;SDS011;54388;53.536;49.300;2023-04-10T06:10:29;20.73;;;7.43;;
67558;SDS011;54388;53.536;49.300;2023-04-10T06:13:02;21.08;;;7.32;;
67558;SDS011;54388;53.536;49.300;2023-04-10T06:15:34;14.55;;;6.88;;
67558;SDS011;54388;53.536;49.300;2023-04-10T06:18:06;15.68;;;6.80;;
67558;SDS011;54388;53.536;49.300;2023-04-10T06:20:38;21.00;;;7.65;;
67558;SDS011;54388;53.536;49.300;2023-04-10T06:23:10;19.20;;;9.00;;
67558;SDS011;54388;53.536;49.300;2023-04-10T06:25:43;22.17;;;8.40;;
67558;SDS011;54388;53.536;49.300;2023-04-10T06:28:15;18.25;;;7.47;;
67558;SDS011;54388;53.536;49.300;2023-04-10T06:30:47;16.40;;;6.15;;
67558;SDS011;54388;53.536;49.300;2023-04-10T06:33:19;24.20;;;6.82;;
67558;SDS011;54388;53.536;49.300;2023-04-10T06:35:51;12.32;;;6.32;;
67558;SDS011;54388;53.536;49.300;2023-04-10T06:38:23;13.93;;;6.28;;
67558;SDS011;54388;53.536;49.300;2023-04-10T06:40:55;16.20;;;6.55;;
67558;SDS011;54388;53.536;49.300;2023-04-10T06:43:26;16.38;;;6.68;;
67558;SDS011;54388;53.536;49.300;2023-04-10T06:45:59;17.75;;;6.40;;
67558;SDS011;54388;53.536;49.300;2023-04-10T06:48:31;15.32;;;5.85;;
67558;SDS011;54388;53.536;49.300;2023-04-10T06:51:03;19.98;;;7.30;;
67558;SDS011;54388;53.536;49.300;2023-04-10T06:53:35;20.10;;;6.68;;
67558;SDS011;54388;53.536;49.300;2023-04-10T06:56:08;12.52;;;6.43;;
67558;SDS011;54388;53.536;49.300;2023-04-10T06:58:42;17.10;;;6.53;;
67558;SDS011;54388;53.536;49.300;2023-04-10T07:01:14;14.00;;;5.95;;
67558;SDS011;54388;53.536;49.300;2023-04-10T07:03:47;11.15;;;5.90;;
67558;SDS011;54388;53.536;49.300;2023-04-10T07:06:20;16.13;;;6.90;;
67558;SDS011;54388;53.536;49.300;2023-04-10T07:08:53;17.85;;;6.68;;
67558;SDS011;54388;53.536;49.300;2023-04-10T07:11:25;17.77;;;5.82;;
67558;SDS011;54388;53.536;49.300;2023-04-10T07:14:02;9.80;;;4.80;;
67558;SDS011;54388;53.536;49.300;2023-04-10T07:16:48;14.82;;;5.78;;
67558;SDS011;54388;53.536;49.300;2023-04-10T07:19:21;16.38;;;5.57;;
67558;SDS011;54388;53.536;49.300;2023-04-10T07:21:54;11.30;;;5.90;;
67558;SDS011;54388;53.536;49.300;2023-04-10T07:24:26;14.23;;;4.38;;
67558;SDS011;54388;53.536;49.300;2023-04-10T07:26:57;11.93;;;5.30;;
67558;SDS011;54388;53.536;49.300;2023-04-10T07:29:31;10.38;;;5.22;;
67558;SDS011;54388;53.536;49.300;2023-04-10T07:32:03;11.68;;;5.57;;
67558;SDS011;54388;53.536;49.300;2023-04-10T07:34:35;14.05;;;6.05;;
67558;SDS011;54388;53.536;49.300;2023-04-10T07:37:07;20.42;;;5.78;;
67558;SDS011;54388;53.536;49.300;2023-04-10T07:39:39;14.93;;;5.93;;
67558;SDS011;54388;53.536;49.300;2023-04-10T07:42:11;18.83;;;5.60;;
67558;SDS011;54388;53.536;49.300;2023-04-10T07:44:43;14.45;;;5.82;;
67558;SDS011;54388;53.536;49.300;2023-04-10T07:47:15;12.95;;;5.93;;
67558;SDS011;54388;53.536;49.300;2023-04-10T07:49:46;12.93;;;5.50;;
67558;SDS011;54388;53.536;49.300;2023-04-10T07:52:19;11.98;;;5.55;;
67558;SDS011;54388;53.536;49.300;2023-04-10T07:54:51;12.75;;;6.07;;
67558;SDS011;54388;53.536;49.300;2023-04-10T07:57:22;12.20;;;5.70;;
67558;SDS011;54388;53.536;49.300;2023-04-10T07:59:54;11.93;;;5.82;;
67558;SDS011;54388;53.536;49.300;2023-04-10T08:02:27;11.15;;;5.43;;
67558;SDS011;54388;53.536;49.300;2023-04-10T08:04:59;12.52;;;5.50;;
67558;SDS011;54388;53.536;49.300;2023-04-10T08:07:30;14.25;;;5.25;;
67558;SDS011;54388;53.536;49.300;2023-04-10T08:10:02;10.05;;;6.07;;
67558;SDS011;54388;53.536;49.300;2023-04-10T08:12:35;14.45;;;5.68;;
67558;SDS011;54388;53.536;49.300;2023-04-10T08:15:07;7.95;;;4.43;;
67558;SDS011;54388;53.536;49.300;2023-04-10T08:17:39;9.93;;;3.70;;
67558;SDS011;54388;53.536;49.300;2023-04-10T08:20:10;10.60;;;4.47;;
67558;SDS011;54388;53.536;49.300;2023-04-10T08:22:43;9.50;;;5.03;;
67558;SDS011;54388;53.536;49.300;2023-04-10T08:25:15;9.70;;;4.53;;
67558;SDS011;54388;53.536;49.300;2023-04-10T08:27:46;8.48;;;4.47;;
67558;SDS011;54388;53.536;49.300;2023-04-10T08:30:18;10.30;;;4.07;;
67558;SDS011;54388;53.536;49.300;2023-04-10T08:32:50;11.65;;;4.40;;
67558;SDS011;54388;53.536;49.300;2023-04-10T08:35:22;6.45;;;4.47;;
67558;SDS011;54388;53.536;49.300;2023-04-10T08:37:54;12.38;;;4.60;;
67558;SDS011;54388;53.536;49.300;2023-04-10T08:40:25;8.38;;;4.20;;
67558;SDS011;54388;53.536;49.300;2023-04-10T08:42:57;9.43;;;4.10;;
67558;SDS011;54388;53.536;49.300;2023-04-10T08:45:30;10.13;;;3.75;;
67558;SDS011;54388;53.536;49.300;2023-04-10T08:48:04;6.05;;;2.55;;
67558;SDS011;54388;53.536;49.300;2023-04-10T08:50:40;9.68;;;3.47;;
67558;SDS011;54388;53.536;49.300;2023-04-10T08:53:15;7.38;;;3.55;;
67558;SDS011;54388;53.536;49.300;2023-04-10T08:55:50;9.90;;;4.13;;
67558;SDS011;54388;53.536;49.300;2023-04-10T08:58:23;10.60;;;4.28;;
67558;SDS011;54388;53.536;49.300;2023-04-10T09:00:55;12.65;;;4.60;;
67558;SDS011;54388;53.536;49.300;2023-04-10T09:03:28;12.73;;;4.38;;
67558;SDS011;54388;53.536;49.300;2023-04-10T09:06:01;9.13;;;3.15;;
67558;SDS011;54388;53.536;49.300;2023-04-10T09:08:37;12.77;;;4.20;;
67558;SDS011;54388;53.536;49.300;2023-04-10T09:11:09;8.70;;;4.20;;
67558;SDS011;54388;53.536;49.300;2023-04-10T09:13:43;15.05;;;4.57;;
67558;SDS011;54388;53.536;49.300;2023-04-10T09:16:16;20.00;;;5.13;;
67558;SDS011;54388;53.536;49.300;2023-04-10T09:18:49;13.85;;;5.07;;
67558;SDS011;54388;53.536;49.300;2023-04-10T09:21:21;18.85;;;4.45;;
67558;SDS011;54388;53.536;49.300;2023-04-10T09:23:59;8.45;;;3.28;;
67558;SDS011;54388;53.536;49.300;2023-04-10T09:26:31;13.70;;;4.13;;
67558;SDS011;54388;53.536;49.300;2023-04-10T09:29:04;10.63;;;3.90;;
67558;SDS011;54388;53.536;49.300;2023-04-10T09:31:38;5.18;;;2.90;;
67558;SDS011;54388;53.536;49.300;2023-04-10T09:34:16;6.10;;;3.20;;
67558;SDS011;54388;53.536;49.300;2023-04-10T09:39:32;6.78;;;4.32;;
67558;SDS011;54388;53.536;49.300;2023-04-10T09:42:06;10.55;;;3.67;;
67558;SDS011;54388;53.536;49.300;2023-04-10T09:44:38;11.75;;;3.40;;
67558;SDS011;54388;53.536;49.300;2023-04-10T09:49:56;9.82;;;3.83;;
67558;SDS011;54388;53.536;49.300;2023-04-10T09:52:31;10.68;;;3.13;;
67558;SDS011;54388;53.536;49.300;2023-04-10T09:55:05;12.88;;;3.17;;
67558;SDS011;54388;53.536;49.300;2023-04-10T09:57:40;8.23;;;2.90;;
67558;SDS011;54388;53.536;49.300;2023-04-10T10:00:12;8.73;;;3.45;;
67558;SDS011;54388;53.536;49.300;2023-04-10T10:02:44;7.65;;;3.30;;
67558;SDS011;54388;53.536;49.300;2023-04-10T10:05:17;10.27;;;3.13;;
67558;SDS011;54388;53.536;49.300;2023-04-10T10:07:50;12.30;;;3.40;;
67558;SDS011;54388;53.536;49.300;2023-04-10T10:10:23;8.85;;;3.00;;
67558;SDS011;54388;53.536;49.300;2023-04-10T10:12:58;6.82;;;2.78;;
67558;SDS011;54388;53.536;49.300;2023-04-10T10:15:37;8.88;;;3.13;;
67558;SDS011;54388;53.536;49.300;2023-04-10T10:19:00;5.50;;;3.22;;
67558;SDS011;54388;53.536;49.300;2023-04-10T10:21:22;14.95;;;3.53;;
67558;SDS011;54388;53.536;49.300;2023-04-10T10:23:58;9.63;;;3.53;;
67558;SDS011;54388;53.536;49.300;2023-04-10T10:26:33;11.82;;;4.13;;
67558;SDS011;54388;53.536;49.300;2023-04-10T10:29:08;9.00;;;3.60;;
67558;SDS011;54388;53.536;49.300;2023-04-10T10:31:44;6.25;;;3.45;;
67558;SDS011;54388;53.536;49.300;2023-04-10T10:34:17;10.23;;;3.42;;
67558;SDS011;54388;53.536;49.300;2023-04-10T10:36:52;11.57;;;2.63;;
67558;SDS011;54388;53.536;49.300;2023-04-10T10:45:16;8.15;;;2.80;;
67558;SDS011;54388;53.536;49.300;2023-04-10T10:47:52;12.00;;;3.13;;
67558;SDS011;54388;53.536;49.300;2023-04-10T10:50:24;9.93;;;3.08;;
67558;SDS011;54388;53.536;49.300;2023-04-10T10:53:32;6.60;;;3.17;;
67558;SDS011;54388;53.536;49.300;2023-04-10T10:58:54;7.72;;;3.00;;
67558;SDS011;54388;53.536;49.300;2023-04-10T11:01:29;9.60;;;2.75;;
67558;SDS011;54388;53.536;49.300;2023-04-10T11:04:09;12.68;;;3.08;;
67558;SDS011;54388;53.536;49.300;2023-04-10T11:08:10;12.35;;;3.40;;
67558;SDS011;54388;53.536;49.300;2023-04-10T11:14:23;6.85;;;3.50;;
67558;SDS011;54388;53.536;49.300;2023-04-10T11:19:06;6.72;;;2.53;;
67558;SDS011;54388;53.536;49.300;2023-04-10T11:24:52;6.75;;;2.85;;
67558;SDS011;54388;53.536;49.300;2023-04-10T11:27:38;13.00;;;3.23;;
67558;SDS011;54388;53.536;49.300;2023-04-10T11:30:25;9.85;;;3.15;;
67558;SDS011;54388;53.536;49.300;2023-04-10T11:32:57;8.70;;;3.25;;
67558;SDS011;54388;53.536;49.300;2023-04-10T11:35:31;12.20;;;3.95;;
67558;SDS011;54388;53.536;49.300;2023-04-10T11:38:10;9.13;;;3.00;;
67558;SDS011;54388;53.536;49.300;2023-04-10T11:41:00;9.30;;;2.92;;
67558;SDS011;54388;53.536;49.300;2023-04-10T11:43:34;10.10;;;3.40;;
67558;SDS011;54388;53.536;49.300;2023-04-10T11:46:06;7.63;;;3.05;;
67558;SDS011;54388;53.536;49.300;2023-04-10T11:48:38;9.82;;;2.75;;
67558;SDS011;54388;53.536;49.300;2023-04-10T11:51:10;11.43;;;2.75;;
67558;SDS011;54388;53.536;49.300;2023-04-10T11:53:43;9.50;;;2.90;;
67558;SDS011;54388;53.536;49.300;2023-04-10T11:56:16;6.95;;;2.50;;
67558;SDS011;54388;53.536;49.300;2023-04-10T11:58:51;7.45;;;3.20;;
67558;SDS011;54388;53.536;49.300;2023-04-10T12:01:23;7.47;;;2.65;;
67558;SDS011;54388;53.536;49.300;2023-04-10T12:03:56;11.77;;;2.97;;
67558;SDS011;54388;53.536;49.300;2023-04-10T12:06:27;12.25;;;2.85;;
67558;SDS011;54388;53.536;49.300;2023-04-10T12:09:11;9.63;;;2.60;;
67558;SDS011;54388;53.536;49.300;2023-04-10T12:11:51;19.00;;;3.28;;
67558;SDS011;54388;53.536;49.300;2023-04-10T12:14:36;6.38;;;2.42;;
67558;SDS011;54388;53.536;49.300;2023-04-10T12:17:09;9.27;;;2.75;;
67558;SDS011;54388;53.536;49.300;2023-04-10T12:19:42;4.65;;;2.90;;
67558;SDS011;54388;53.536;49.300;2023-04-10T12:22:15;29.08;;;4.00;;
67558;SDS011;54388;53.536;49.300;2023-04-10T12:24:50;8.75;;;2.72;;
67558;SDS011;54388;53.536;49.300;2023-04-10T12:27:23;9.82;;;2.88;;
67558;SDS011;54388;53.536;49.300;2023-04-10T12:29:57;10.45;;;3.45;;
67558;SDS011;54388;53.536;49.300;2023-04-10T12:32:29;8.45;;;3.05;;
67558;SDS011;54388;53.536;49.300;2023-04-10T12:35:00;10.93;;;2.65;;
67558;SDS011;54388;53.536;49.300;2023-04-10T12:37:51;6.93;;;2.92;;
67558;SDS011;54388;53.536;49.300;2023-04-10T12:40:24;11.27;;;3.17;;
67558;SDS011;54388;53.536;49.300;2023-04-10T12:42:57;16.27;;;2.90;;
67558;SDS011;54388;53.536;49.300;2023-04-10T12:45:41;6.03;;;2.60;;
67558;SDS011;54388;53.536;49.300;2023-04-10T12:48:21;11.93;;;2.53;;
67558;SDS011;54388;53.536;49.300;2023-04-10T12:50:53;9.23;;;2.30;;
67558;SDS011;54388;53.536;49.300;2023-04-10T12:53:25;7.18;;;2.35;;
67558;SDS011;54388;53.536;49.300;2023-04-10T12:55:59;13.07;;;2.45;;
67558;SDS011;54388;53.536;49.300;2023-04-10T12:58:31;10.43;;;2.60;;
67558;SDS011;54388;53.536;49.300;2023-04-10T13:01:04;13.40;;;2.75;;
67558;SDS011;54388;53.536;49.300;2023-04-10T13:03:36;11.05;;;2.80;;
67558;SDS011;54388;53.536;49.300;2023-04-10T13:06:08;8.55;;;2.15;;
67558;SDS011;54388;53.536;49.300;2023-04-10T13:08:40;9.82;;;2.30;;
67558;SDS011;54388;53.536;49.300;2023-04-10T13:11:12;7.18;;;1.98;;
67558;SDS011;54388;53.536;49.300;2023-04-10T13:13:44;11.32;;;2.70;;
67558;SDS011;54388;53.536;49.300;2023-04-10T13:16:16;9.80;;;2.38;;
67558;SDS011;54388;53.536;49.300;2023-04-10T13:18:48;8.25;;;2.38;;
67558;SDS011;54388;53.536;49.300;2023-04-10T13:21:20;6.63;;;2.45;;
67558;SDS011;54388;53.536;49.300;2023-04-10T13:23:55;12.25;;;3.17;;
67558;SDS011;54388;53.536;49.300;2023-04-10T13:26:27;5.65;;;2.45;;
67558;SDS011;54388;53.536;49.300;2023-04-10T13:28:59;12.55;;;2.80;;
67558;SDS011;54388;53.536;49.300;2023-04-10T13:31:31;6.55;;;2.63;;
67558;SDS011;54388;53.536;49.300;2023-04-10T13:34:02;9.07;;;2.28;;
67558;SDS011;54388;53.536;49.300;2023-04-10T13:36:34;6.60;;;2.47;;
67558;SDS011;54388;53.536;49.300;2023-04-10T13:39:06;13.13;;;2.60;;
67558;SDS011;54388;53.536;49.300;2023-04-10T13:41:38;9.93;;;2.10;;
67558;SDS011;54388;53.536;49.300;2023-04-10T13:44:10;5.47;;;2.22;;
67558;SDS011;54388;53.536;49.300;2023-04-10T13:46:42;10.85;;;3.17;;
67558;SDS011;54388;53.536;49.300;2023-04-10T13:49:13;4.53;;;2.33;;
67558;SDS011;54388;53.536;49.300;2023-04-10T13:51:47;8.25;;;2.55;;
67558;SDS011;54388;53.536;49.300;2023-04-10T13:54:19;7.25;;;2.53;;
67558;SDS011;54388;53.536;49.300;2023-04-10T13:56:51;7.43;;;2.50;;
67558;SDS011;54388;53.536;49.300;2023-04-10T13:59:24;7.40;;;2.58;;
67558;SDS011;54388;53.536;49.300;2023-04-10T14:01:56;14.32;;;3.40;;
67558;SDS011;54388;53.536;49.300;2023-04-10T14:04:28;8.88;;;2.90;;
67558;SDS011;54388;53.536;49.300;2023-04-10T14:07:00;11.50;;;3.60;;
67558;SDS011;54388;53.536;49.300;2023-04-10T14:09:32;7.07;;;3.40;;
67558;SDS011;54388;53.536;49.300;2023-04-10T14:12:04;11.50;;;3.40;;
67558;SDS011;54388;53.536;49.300;2023-04-10T14:14:36;6.32;;;2.50;;
67558;SDS011;54388;53.536;49.300;2023-04-10T14:17:08;12.30;;;3.55;;
67558;SDS011;54388;53.536;49.300;2023-04-10T14:19:40;6.28;;;3.10;;
67558;SDS011;54388;53.536;49.300;2023-04-10T14:22:12;11.57;;;2.95;;
67558;SDS011;54388;53.536;49.300;2023-04-10T14:24:44;10.63;;;2.75;;
67558;SDS011;54388;53.536;49.300;2023-04-10T14:27:16;5.65;;;2.47;;
67558;SDS011;54388;53.536;49.300;2023-04-10T14:29:48;15.02;;;3.08;;
67558;SDS011;54388;53.536;49.300;2023-04-10T14:32:20;14.43;;;2.95;;
67558;SDS011;54388;53.536;49.300;2023-04-10T14:34:52;6.75;;;2.40;;
67558;SDS011;54388;53.536;49.300;2023-04-10T14:37:24;8.65;;;3.00;;
67558;SDS011;54388;53.536;49.300;2023-04-10T14:39:56;10.65;;;3.05;;
67558;SDS011;54388;53.536;49.300;2023-04-10T14:42:28;18.42;;;3.17;;
67558;SDS011;54388;53.536;49.300;2023-04-10T14:45:00;10.07;;;3.08;;
67558;SDS011;54388;53.536;49.300;2023-04-10T14:47:32;6.00;;;3.00;;
67558;SDS011;54388;53.536;49.300;2023-04-10T14:50:04;8.85;;;2.90;;
67558;SDS011;54388;53.536;49.300;2023-04-10T14:52:36;22.60;;;3.40;;
67558;SDS011;54388;53.536;49.300;2023-04-10T14:55:08;9.07;;;3.00;;
67558;SDS011;54388;53.536;49.300;2023-04-10T14:57:40;10.43;;;2.90;;
67558;SDS011;54388;53.536;49.300;2023-04-10T15:00:12;10.73;;;3.03;;
67558;SDS011;54388;53.536;49.300;2023-04-10T15:02:44;13.18;;;3.15;;
67558;SDS011;54388;53.536;49.300;2023-04-10T15:05:16;23.02;;;3.80;;
67558;SDS011;54388;53.536;49.300;2023-04-10T15:07:48;8.20;;;2.63;;
67558;SDS011;54388;53.536;49.300;2023-04-10T15:10:20;12.73;;;3.67;;
67558;SDS011;54388;53.536;49.300;2023-04-10T15:12:52;7.97;;;3.05;;
67558;SDS011;54388;53.536;49.300;2023-04-10T15:15:24;8.80;;;3.08;;
67558;SDS011;54388;53.536;49.300;2023-04-10T15:17:57;11.77;;;3.30;;
67558;SDS011;54388;53.536;49.300;2023-04-10T15:20:28;19.38;;;3.42;;
67558;SDS011;54388;53.536;49.300;2023-04-10T15:23:00;13.50;;;3.70;;
67558;SDS011;54388;53.536;49.300;2023-04-10T15:25:32;11.30;;;3.80;;
67558;SDS011;54388;53.536;49.300;2023-04-10T15:28:04;20.58;;;4.10;;
67558;SDS011;54388;53.536;49.300;2023-04-10T15:30:40;20.48;;;3.92;;
67558;SDS011;54388;53.536;49.300;2023-04-10T15:33:13;18.75;;;4.35;;
67558;SDS011;54388;53.536;49.300;2023-04-10T15:35:48;23.38;;;4.35;;
67558;SDS011;54388;53.536;49.300;2023-04-10T15:38:21;25.90;;;4.72;;
67558;SDS011;54388;53.536;49.300;2023-04-10T15:40:56;42.25;;;6.28;;
67558;SDS011;54388;53.536;49.300;2023-04-10T15:43:28;37.75;;;6.75;;
67558;SDS011;54388;53.536;49.300;2023-04-10T15:46:00;28.98;;;5.78;;
67558;SDS011;54388;53.536;49.300;2023-04-10T15:48:31;27.13;;;4.65;;